sensor_id;sensor_type;location;lat;lon;timestamp;P1;durP1;ratioP1;P2;durP2;ratioP2
5295;SDS011;2670;42.720;23.336;2023-05-09T00:00:46;5.97;;;4.60;;
5295;SDS011;2670;42.720;23.336;2023-05-09T00:03:13;5.77;;;4.40;;
5295;SDS011;2670;42.720;23.336;2023-05-09T00:05:41;5.03;;;4.00;;
5295;SDS011;2670;42.720;23.336;2023-05-09T00:08:08;5.23;;;4.47;;
5295;SDS011;2670;42.720;23.336;2023-05-09T00:10:36;6.07;;;4.67;;
5295;SDS011;2670;42.720;23.336;2023-05-09T00:13:03;4.70;;;4.10;;
5295;SDS011;2670;42.720;23.336;2023-05-09T00:15:30;10.23;;;4.60;;
5295;SDS011;2670;42.720;23.336;2023-05-09T00:17:56;5.97;;;4.50;;
5295;SDS011;2670;42.720;23.336;2023-05-09T00:20:23;5.47;;;4.40;;
5295;SDS011;2670;42.720;23.336;2023-05-09T00:22:51;5.77;;;4.70;;
5295;SDS011;2670;42.720;23.336;2023-05-09T00:25:19;11.40;;;4.70;;
5295;SDS011;2670;42.720;23.336;2023-05-09T00:27:45;4.87;;;4.03;;
5295;SDS011;2670;42.720;23.336;2023-05-09T00:30:12;9.60;;;5.00;;
5295;SDS011;2670;42.720;23.336;2023-05-09T00:32:39;4.33;;;3.90;;
5295;SDS011;2670;42.720;23.336;2023-05-09T00:35:06;5.20;;;4.30;;
5295;SDS011;2670;42.720;23.336;2023-05-09T00:37:34;5.33;;;4.00;;
5295;SDS011;2670;42.720;23.336;2023-05-09T00:40:02;7.37;;;4.70;;
5295;SDS011;2670;42.720;23.336;2023-05-09T00:42:30;5.10;;;4.23;;
5295;SDS011;2670;42.720;23.336;2023-05-09T00:44:57;6.30;;;4.27;;
5295;SDS011;2670;42.720;23.336;2023-05-09T00:47:24;5.13;;;4.40;;
5295;SDS011;2670;42.720;23.336;2023-05-09T00:49:53;7.33;;;4.63;;
5295;SDS011;2670;42.720;23.336;2023-05-09T00:52:20;7.30;;;4.30;;
5295;SDS011;2670;42.720;23.336;2023-05-09T00:54:50;5.33;;;4.10;;
5295;SDS011;2670;42.720;23.336;2023-05-09T00:57:18;6.43;;;4.57;;
5295;SDS011;2670;42.720;23.336;2023-05-09T00:59:45;7.20;;;5.00;;
5295;SDS011;2670;42.720;23.336;2023-05-09T01:02:11;5.33;;;4.30;;
5295;SDS011;2670;42.720;23.336;2023-05-09T01:04:39;8.37;;;5.17;;
5295;SDS011;2670;42.720;23.336;2023-05-09T01:07:09;6.87;;;4.47;;
5295;SDS011;2670;42.720;23.336;2023-05-09T01:09:42;5.20;;;4.00;;
5295;SDS011;2670;42.720;23.336;2023-05-09T01:12:20;8.60;;;5.00;;
5295;SDS011;2670;42.720;23.336;2023-05-09T01:14:53;8.80;;;4.83;;
5295;SDS011;2670;42.720;23.336;2023-05-09T01:17:26;15.17;;;5.70;;
5295;SDS011;2670;42.720;23.336;2023-05-09T01:20:00;8.33;;;4.53;;
5295;SDS011;2670;42.720;23.336;2023-05-09T01:22:35;5.07;;;4.57;;
5295;SDS011;2670;42.720;23.336;2023-05-09T01:28:03;6.30;;;4.50;;
5295;SDS011;2670;42.720;23.336;2023-05-09T01:30:39;13.33;;;5.53;;
5295;SDS011;2670;42.720;23.336;2023-05-09T01:33:10;5.27;;;4.30;;
5295;SDS011;2670;42.720;23.336;2023-05-09T01:35:41;9.77;;;5.20;;
5295;SDS011;2670;42.720;23.336;2023-05-09T01:38:13;5.70;;;4.60;;
5295;SDS011;2670;42.720;23.336;2023-05-09T01:40:46;7.00;;;4.63;;
5295;SDS011;2670;42.720;23.336;2023-05-09T01:43:17;6.27;;;5.30;;
5295;SDS011;2670;42.720;23.336;2023-05-09T01:45:47;7.33;;;4.87;;
5295;SDS011;2670;42.720;23.336;2023-05-09T01:48:15;6.33;;;4.80;;
5295;SDS011;2670;42.720;23.336;2023-05-09T01:50:43;6.47;;;4.80;;
5295;SDS011;2670;42.720;23.336;2023-05-09T01:53:10;6.20;;;4.53;;
5295;SDS011;2670;42.720;23.336;2023-05-09T01:55:39;7.63;;;4.83;;
5295;SDS011;2670;42.720;23.336;2023-05-09T01:58:06;5.93;;;5.20;;
5295;SDS011;2670;42.720;23.336;2023-05-09T02:00:34;11.13;;;4.80;;
5295;SDS011;2670;42.720;23.336;2023-05-09T02:03:03;6.90;;;4.70;;
5295;SDS011;2670;42.720;23.336;2023-05-09T02:05:31;5.43;;;4.50;;
5295;SDS011;2670;42.720;23.336;2023-05-09T02:07:58;5.10;;;4.00;;
5295;SDS011;2670;42.720;23.336;2023-05-09T02:10:25;6.33;;;4.60;;
5295;SDS011;2670;42.720;23.336;2023-05-09T02:12:53;7.03;;;4.30;;
5295;SDS011;2670;42.720;23.336;2023-05-09T02:15:20;5.83;;;4.47;;
5295;SDS011;2670;42.720;23.336;2023-05-09T02:17:47;6.50;;;4.37;;
5295;SDS011;2670;42.720;23.336;2023-05-09T02:20:15;6.07;;;4.50;;
5295;SDS011;2670;42.720;23.336;2023-05-09T02:22:42;7.67;;;4.73;;
5295;SDS011;2670;42.720;23.336;2023-05-09T02:25:10;6.77;;;4.80;;
5295;SDS011;2670;42.720;23.336;2023-05-09T02:27:39;7.17;;;4.90;;
5295;SDS011;2670;42.720;23.336;2023-05-09T02:30:09;19.60;;;10.30;;
5295;SDS011;2670;42.720;23.336;2023-05-09T02:32:39;18.10;;;9.33;;
5295;SDS011;2670;42.720;23.336;2023-05-09T02:35:10;14.37;;;7.80;;
5295;SDS011;2670;42.720;23.336;2023-05-09T02:37:39;9.77;;;6.20;;
5295;SDS011;2670;42.720;23.336;2023-05-09T02:40:07;6.77;;;5.53;;
5295;SDS011;2670;42.720;23.336;2023-05-09T02:42:35;7.77;;;5.07;;
5295;SDS011;2670;42.720;23.336;2023-05-09T02:45:01;8.00;;;5.57;;
5295;SDS011;2670;42.720;23.336;2023-05-09T02:47:28;8.37;;;5.70;;
5295;SDS011;2670;42.720;23.336;2023-05-09T02:49:55;7.00;;;5.17;;
5295;SDS011;2670;42.720;23.336;2023-05-09T02:52:23;10.57;;;5.67;;
5295;SDS011;2670;42.720;23.336;2023-05-09T02:54:51;6.27;;;5.03;;
5295;SDS011;2670;42.720;23.336;2023-05-09T02:57:18;7.47;;;5.87;;
5295;SDS011;2670;42.720;23.336;2023-05-09T02:59:45;10.63;;;5.20;;
5295;SDS011;2670;42.720;23.336;2023-05-09T03:02:11;5.63;;;5.03;;
5295;SDS011;2670;42.720;23.336;2023-05-09T03:04:38;9.70;;;6.70;;
5295;SDS011;2670;42.720;23.336;2023-05-09T03:07:05;10.90;;;6.30;;
5295;SDS011;2670;42.720;23.336;2023-05-09T03:09:31;8.47;;;6.60;;
5295;SDS011;2670;42.720;23.336;2023-05-09T03:11:59;6.80;;;5.80;;
5295;SDS011;2670;42.720;23.336;2023-05-09T03:14:26;8.10;;;6.27;;
5295;SDS011;2670;42.720;23.336;2023-05-09T03:16:53;8.80;;;6.33;;
5295;SDS011;2670;42.720;23.336;2023-05-09T03:19:19;8.90;;;6.30;;
5295;SDS011;2670;42.720;23.336;2023-05-09T03:21:46;9.70;;;6.67;;
5295;SDS011;2670;42.720;23.336;2023-05-09T03:24:13;12.87;;;8.07;;
5295;SDS011;2670;42.720;23.336;2023-05-09T03:26:40;12.77;;;7.87;;
5295;SDS011;2670;42.720;23.336;2023-05-09T03:29:08;13.10;;;8.20;;
5295;SDS011;2670;42.720;23.336;2023-05-09T03:31:34;12.10;;;8.50;;
5295;SDS011;2670;42.720;23.336;2023-05-09T03:34:01;11.83;;;7.83;;
5295;SDS011;2670;42.720;23.336;2023-05-09T03:36:27;10.17;;;7.60;;
5295;SDS011;2670;42.720;23.336;2023-05-09T03:38:55;10.00;;;7.00;;
5295;SDS011;2670;42.720;23.336;2023-05-09T03:41:22;10.20;;;7.77;;
5295;SDS011;2670;42.720;23.336;2023-05-09T03:43:49;12.93;;;7.23;;
5295;SDS011;2670;42.720;23.336;2023-05-09T03:46:17;10.00;;;6.80;;
5295;SDS011;2670;42.720;23.336;2023-05-09T03:48:43;11.70;;;7.27;;
5295;SDS011;2670;42.720;23.336;2023-05-09T03:51:10;9.73;;;7.43;;
5295;SDS011;2670;42.720;23.336;2023-05-09T03:53:37;9.10;;;7.27;;
5295;SDS011;2670;42.720;23.336;2023-05-09T03:56:04;9.73;;;6.70;;
5295;SDS011;2670;42.720;23.336;2023-05-09T03:58:31;9.57;;;7.47;;
5295;SDS011;2670;42.720;23.336;2023-05-09T04:00:58;9.50;;;6.57;;
5295;SDS011;2670;42.720;23.336;2023-05-09T04:03:26;14.67;;;9.57;;
5295;SDS011;2670;42.720;23.336;2023-05-09T04:05:53;17.33;;;11.10;;
5295;SDS011;2670;42.720;23.336;2023-05-09T04:08:20;10.77;;;7.83;;
5295;SDS011;2670;42.720;23.336;2023-05-09T04:10:47;8.00;;;6.67;;
5295;SDS011;2670;42.720;23.336;2023-05-09T04:13:14;8.60;;;6.43;;
5295;SDS011;2670;42.720;23.336;2023-05-09T04:15:41;9.23;;;6.07;;
5295;SDS011;2670;42.720;23.336;2023-05-09T04:18:08;12.13;;;7.10;;
5295;SDS011;2670;42.720;23.336;2023-05-09T04:20:36;7.57;;;5.77;;
5295;SDS011;2670;42.720;23.336;2023-05-09T04:23:03;8.20;;;5.80;;
5295;SDS011;2670;42.720;23.336;2023-05-09T04:25:30;8.63;;;5.17;;
5295;SDS011;2670;42.720;23.336;2023-05-09T04:27:56;7.50;;;5.20;;
5295;SDS011;2670;42.720;23.336;2023-05-09T04:30:23;11.10;;;5.70;;
5295;SDS011;2670;42.720;23.336;2023-05-09T04:32:51;11.67;;;6.00;;
5295;SDS011;2670;42.720;23.336;2023-05-09T04:35:19;10.43;;;4.70;;
5295;SDS011;2670;42.720;23.336;2023-05-09T04:37:47;7.20;;;5.60;;
5295;SDS011;2670;42.720;23.336;2023-05-09T04:40:14;7.20;;;5.73;;
5295;SDS011;2670;42.720;23.336;2023-05-09T04:42:41;7.30;;;5.30;;
5295;SDS011;2670;42.720;23.336;2023-05-09T04:45:08;11.63;;;4.90;;
5295;SDS011;2670;42.720;23.336;2023-05-09T04:47:35;5.53;;;4.63;;
5295;SDS011;2670;42.720;23.336;2023-05-09T04:50:05;10.10;;;4.77;;
5295;SDS011;2670;42.720;23.336;2023-05-09T04:52:33;4.10;;;3.73;;
5295;SDS011;2670;42.720;23.336;2023-05-09T04:55:01;5.10;;;4.00;;
5295;SDS011;2670;42.720;23.336;2023-05-09T04:57:27;4.43;;;4.03;;
5295;SDS011;2670;42.720;23.336;2023-05-09T04:59:54;5.50;;;3.90;;
5295;SDS011;2670;42.720;23.336;2023-05-09T05:02:21;4.67;;;3.73;;
5295;SDS011;2670;42.720;23.336;2023-05-09T05:04:49;5.83;;;4.37;;
5295;SDS011;2670;42.720;23.336;2023-05-09T05:07:15;5.70;;;4.30;;
5295;SDS011;2670;42.720;23.336;2023-05-09T05:09:42;4.37;;;3.97;;
5295;SDS011;2670;42.720;23.336;2023-05-09T05:12:10;4.13;;;3.27;;
5295;SDS011;2670;42.720;23.336;2023-05-09T05:14:37;4.60;;;3.50;;
5295;SDS011;2670;42.720;23.336;2023-05-09T05:17:04;4.83;;;3.27;;
5295;SDS011;2670;42.720;23.336;2023-05-09T05:19:31;5.03;;;3.27;;
5295;SDS011;2670;42.720;23.336;2023-05-09T05:21:58;7.03;;;2.50;;
5295;SDS011;2670;42.720;23.336;2023-05-09T05:24:24;4.77;;;2.53;;
5295;SDS011;2670;42.720;23.336;2023-05-09T05:26:51;3.73;;;2.67;;
5295;SDS011;2670;42.720;23.336;2023-05-09T05:29:19;2.67;;;2.20;;
5295;SDS011;2670;42.720;23.336;2023-05-09T05:31:46;3.77;;;1.83;;
5295;SDS011;2670;42.720;23.336;2023-05-09T05:34:12;2.70;;;1.73;;
5295;SDS011;2670;42.720;23.336;2023-05-09T05:36:40;2.87;;;1.80;;
5295;SDS011;2670;42.720;23.336;2023-05-09T05:39:07;1.87;;;1.50;;
5295;SDS011;2670;42.720;23.336;2023-05-09T05:41:34;1.80;;;1.70;;
5295;SDS011;2670;42.720;23.336;2023-05-09T05:44:00;1.90;;;1.70;;
5295;SDS011;2670;42.720;23.336;2023-05-09T05:46:28;6.10;;;1.40;;
5295;SDS011;2670;42.720;23.336;2023-05-09T05:48:55;1.67;;;1.57;;
5295;SDS011;2670;42.720;23.336;2023-05-09T05:51:22;1.60;;;1.40;;
5295;SDS011;2670;42.720;23.336;2023-05-09T05:53:48;1.40;;;1.30;;
5295;SDS011;2670;42.720;23.336;2023-05-09T05:56:15;3.07;;;1.63;;
5295;SDS011;2670;42.720;23.336;2023-05-09T05:58:42;2.90;;;2.00;;
5295;SDS011;2670;42.720;23.336;2023-05-09T06:01:09;2.43;;;2.20;;
5295;SDS011;2670;42.720;23.336;2023-05-09T06:03:37;3.53;;;2.37;;
5295;SDS011;2670;42.720;23.336;2023-05-09T06:06:03;3.47;;;2.40;;
5295;SDS011;2670;42.720;23.336;2023-05-09T06:08:30;3.50;;;2.23;;
5295;SDS011;2670;42.720;23.336;2023-05-09T06:10:57;2.47;;;2.10;;
5295;SDS011;2670;42.720;23.336;2023-05-09T06:13:25;3.33;;;2.30;;
5295;SDS011;2670;42.720;23.336;2023-05-09T06:15:53;2.87;;;2.30;;
5295;SDS011;2670;42.720;23.336;2023-05-09T06:18:20;4.60;;;2.00;;
5295;SDS011;2670;42.720;23.336;2023-05-09T06:20:48;2.60;;;2.00;;
5295;SDS011;2670;42.720;23.336;2023-05-09T06:23:15;2.60;;;2.00;;
5295;SDS011;2670;42.720;23.336;2023-05-09T06:25:46;5.83;;;2.37;;
5295;SDS011;2670;42.720;23.336;2023-05-09T06:28:13;6.87;;;2.67;;
5295;SDS011;2670;42.720;23.336;2023-05-09T06:30:39;2.90;;;2.07;;
5295;SDS011;2670;42.720;23.336;2023-05-09T06:33:06;5.30;;;2.53;;
5295;SDS011;2670;42.720;23.336;2023-05-09T06:35:33;4.80;;;2.00;;
5295;SDS011;2670;42.720;23.336;2023-05-09T06:38:01;3.03;;;2.27;;
5295;SDS011;2670;42.720;23.336;2023-05-09T06:40:27;3.00;;;2.70;;
5295;SDS011;2670;42.720;23.336;2023-05-09T06:42:54;2.97;;;1.97;;
5295;SDS011;2670;42.720;23.336;2023-05-09T06:45:21;5.60;;;2.00;;
5295;SDS011;2670;42.720;23.336;2023-05-09T06:47:48;2.80;;;2.37;;
5295;SDS011;2670;42.720;23.336;2023-05-09T06:50:15;2.20;;;2.00;;
5295;SDS011;2670;42.720;23.336;2023-05-09T06:52:41;2.50;;;2.10;;
5295;SDS011;2670;42.720;23.336;2023-05-09T06:55:12;2.23;;;1.77;;
5295;SDS011;2670;42.720;23.336;2023-05-09T06:57:39;5.20;;;2.00;;
5295;SDS011;2670;42.720;23.336;2023-05-09T07:00:06;2.90;;;2.27;;
5295;SDS011;2670;42.720;23.336;2023-05-09T07:02:34;2.13;;;1.90;;
5295;SDS011;2670;42.720;23.336;2023-05-09T07:05:01;1.90;;;1.77;;
5295;SDS011;2670;42.720;23.336;2023-05-09T07:07:27;1.90;;;1.80;;
5295;SDS011;2670;42.720;23.336;2023-05-09T07:09:54;2.67;;;2.00;;
5295;SDS011;2670;42.720;23.336;2023-05-09T07:12:22;2.70;;;1.97;;
5295;SDS011;2670;42.720;23.336;2023-05-09T07:14:49;5.50;;;2.10;;
5295;SDS011;2670;42.720;23.336;2023-05-09T07:17:16;3.03;;;1.73;;
5295;SDS011;2670;42.720;23.336;2023-05-09T07:19:42;4.33;;;1.80;;
5295;SDS011;2670;42.720;23.336;2023-05-09T07:22:09;2.20;;;1.70;;
5295;SDS011;2670;42.720;23.336;2023-05-09T07:24:37;2.43;;;1.70;;
5295;SDS011;2670;42.720;23.336;2023-05-09T07:27:04;2.03;;;1.73;;
5295;SDS011;2670;42.720;23.336;2023-05-09T07:29:32;1.67;;;1.43;;
5295;SDS011;2670;42.720;23.336;2023-05-09T07:31:58;4.03;;;1.83;;
5295;SDS011;2670;42.720;23.336;2023-05-09T07:34:25;1.53;;;1.40;;
5295;SDS011;2670;42.720;23.336;2023-05-09T07:36:52;4.73;;;1.77;;
5295;SDS011;2670;42.720;23.336;2023-05-09T07:39:18;3.00;;;2.37;;
5295;SDS011;2670;42.720;23.336;2023-05-09T07:41:45;2.70;;;1.90;;
5295;SDS011;2670;42.720;23.336;2023-05-09T07:44:12;3.27;;;2.17;;
5295;SDS011;2670;42.720;23.336;2023-05-09T07:46:40;9.53;;;1.67;;
5295;SDS011;2670;42.720;23.336;2023-05-09T07:49:07;2.77;;;1.67;;
5295;SDS011;2670;42.720;23.336;2023-05-09T07:51:33;2.37;;;1.70;;
5295;SDS011;2670;42.720;23.336;2023-05-09T07:54:00;2.20;;;1.63;;
5295;SDS011;2670;42.720;23.336;2023-05-09T07:56:27;2.60;;;1.90;;
5295;SDS011;2670;42.720;23.336;2023-05-09T07:58:54;2.50;;;1.67;;
5295;SDS011;2670;42.720;23.336;2023-05-09T08:01:20;3.43;;;1.60;;
5295;SDS011;2670;42.720;23.336;2023-05-09T08:03:48;1.60;;;1.50;;
5295;SDS011;2670;42.720;23.336;2023-05-09T08:06:15;1.80;;;1.50;;
5295;SDS011;2670;42.720;23.336;2023-05-09T08:08:42;1.87;;;1.57;;
5295;SDS011;2670;42.720;23.336;2023-05-09T08:11:08;1.70;;;1.53;;
5295;SDS011;2670;42.720;23.336;2023-05-09T08:13:35;4.60;;;1.60;;
5295;SDS011;2670;42.720;23.336;2023-05-09T08:16:02;3.60;;;1.40;;
5295;SDS011;2670;42.720;23.336;2023-05-09T08:18:29;6.97;;;1.70;;
5295;SDS011;2670;42.720;23.336;2023-05-09T08:20:57;2.17;;;1.50;;
5295;SDS011;2670;42.720;23.336;2023-05-09T08:23:23;3.67;;;1.83;;
5295;SDS011;2670;42.720;23.336;2023-05-09T08:25:51;3.17;;;1.40;;
5295;SDS011;2670;42.720;23.336;2023-05-09T08:28:19;3.03;;;1.90;;
5295;SDS011;2670;42.720;23.336;2023-05-09T08:30:48;2.60;;;1.70;;
5295;SDS011;2670;42.720;23.336;2023-05-09T08:33:15;5.80;;;1.30;;
5295;SDS011;2670;42.720;23.336;2023-05-09T08:35:41;1.40;;;1.30;;
5295;SDS011;2670;42.720;23.336;2023-05-09T08:38:09;1.50;;;1.10;;
5295;SDS011;2670;42.720;23.336;2023-05-09T08:40:36;2.10;;;1.33;;
5295;SDS011;2670;42.720;23.336;2023-05-09T08:43:03;1.03;;;0.80;;
5295;SDS011;2670;42.720;23.336;2023-05-09T08:45:33;4.53;;;1.93;;
5295;SDS011;2670;42.720;23.336;2023-05-09T08:48:01;1.40;;;1.00;;
5295;SDS011;2670;42.720;23.336;2023-05-09T08:50:29;1.27;;;0.80;;
5295;SDS011;2670;42.720;23.336;2023-05-09T08:52:55;0.80;;;0.80;;
5295;SDS011;2670;42.720;23.336;2023-05-09T08:55:23;5.33;;;1.27;;
5295;SDS011;2670;42.720;23.336;2023-05-09T08:57:51;1.87;;;1.20;;
5295;SDS011;2670;42.720;23.336;2023-05-09T09:00:18;5.50;;;2.80;;
5295;SDS011;2670;42.720;23.336;2023-05-09T09:02:46;4.03;;;1.40;;
5295;SDS011;2670;42.720;23.336;2023-05-09T09:05:12;3.57;;;1.30;;
5295;SDS011;2670;42.720;23.336;2023-05-09T09:07:39;6.40;;;1.00;;
5295;SDS011;2670;42.720;23.336;2023-05-09T09:10:08;1.97;;;1.20;;
5295;SDS011;2670;42.720;23.336;2023-05-09T09:12:37;10.50;;;3.50;;
5295;SDS011;2670;42.720;23.336;2023-05-09T09:15:05;2.90;;;2.23;;
5295;SDS011;2670;42.720;23.336;2023-05-09T09:17:41;3.13;;;2.30;;
5295;SDS011;2670;42.720;23.336;2023-05-09T09:20:13;2.30;;;1.73;;
5295;SDS011;2670;42.720;23.336;2023-05-09T09:22:43;2.63;;;1.50;;
5295;SDS011;2670;42.720;23.336;2023-05-09T09:25:13;5.43;;;1.57;;
5295;SDS011;2670;42.720;23.336;2023-05-09T09:27:41;2.53;;;1.60;;
5295;SDS011;2670;42.720;23.336;2023-05-09T09:30:08;9.50;;;1.00;;
5295;SDS011;2670;42.720;23.336;2023-05-09T09:32:37;1.20;;;1.00;;
5295;SDS011;2670;42.720;23.336;2023-05-09T09:35:04;2.30;;;1.60;;
5295;SDS011;2670;42.720;23.336;2023-05-09T09:37:32;2.50;;;1.70;;
5295;SDS011;2670;42.720;23.336;2023-05-09T09:39:59;2.60;;;1.37;;
5295;SDS011;2670;42.720;23.336;2023-05-09T09:42:26;2.30;;;1.63;;
5295;SDS011;2670;42.720;23.336;2023-05-09T09:45:09;2.13;;;0.80;;
5295;SDS011;2670;42.720;23.336;2023-05-09T09:47:37;2.77;;;1.57;;
5295;SDS011;2670;42.720;23.336;2023-05-09T09:50:14;1.83;;;1.13;;
5295;SDS011;2670;42.720;23.336;2023-05-09T09:52:42;2.63;;;1.60;;
5295;SDS011;2670;42.720;23.336;2023-05-09T09:55:14;6.80;;;1.60;;
5295;SDS011;2670;42.720;23.336;2023-05-09T09:57:40;1.80;;;1.47;;
5295;SDS011;2670;42.720;23.336;2023-05-09T10:00:11;1.80;;;1.70;;
5295;SDS011;2670;42.720;23.336;2023-05-09T10:02:46;1.40;;;1.27;;
5295;SDS011;2670;42.720;23.336;2023-05-09T10:05:17;2.50;;;1.57;;
5295;SDS011;2670;42.720;23.336;2023-05-09T10:07:48;1.77;;;1.67;;
5295;SDS011;2670;42.720;23.336;2023-05-09T10:10:16;2.17;;;1.97;;
5295;SDS011;2670;42.720;23.336;2023-05-09T10:12:43;1.60;;;1.50;;
5295;SDS011;2670;42.720;23.336;2023-05-09T10:15:12;2.70;;;1.83;;
5295;SDS011;2670;42.720;23.336;2023-05-09T10:17:42;1.90;;;1.70;;
5295;SDS011;2670;42.720;23.336;2023-05-09T10:20:09;4.60;;;1.40;;
5295;SDS011;2670;42.720;23.336;2023-05-09T10:22:38;1.87;;;1.70;;
5295;SDS011;2670;42.720;23.336;2023-05-09T10:25:09;2.13;;;1.60;;
5295;SDS011;2670;42.720;23.336;2023-05-09T10:27:43;3.50;;;1.70;;
5295;SDS011;2670;42.720;23.336;2023-05-09T10:30:14;3.63;;;1.60;;
5295;SDS011;2670;42.720;23.336;2023-05-09T10:32:46;2.43;;;2.10;;
5295;SDS011;2670;42.720;23.336;2023-05-09T10:35:17;2.03;;;1.80;;
5295;SDS011;2670;42.720;23.336;2023-05-09T10:37:45;2.80;;;1.70;;
5295;SDS011;2670;42.720;23.336;2023-05-09T10:40:13;7.80;;;1.33;;
5295;SDS011;2670;42.720;23.336;2023-05-09T10:42:41;2.70;;;2.23;;
5295;SDS011;2670;42.720;23.336;2023-05-09T10:45:08;2.00;;;1.80;;
5295;SDS011;2670;42.720;23.336;2023-05-09T10:47:37;2.53;;;2.03;;
5295;SDS011;2670;42.720;23.336;2023-05-09T10:50:06;7.23;;;3.33;;
5295;SDS011;2670;42.720;23.336;2023-05-09T10:55:36;2.83;;;2.27;;
5295;SDS011;2670;42.720;23.336;2023-05-09T10:58:17;2.53;;;2.10;;
5295;SDS011;2670;42.720;23.336;2023-05-09T11:00:45;2.50;;;2.10;;
5295;SDS011;2670;42.720;23.336;2023-05-09T11:03:14;2.70;;;2.00;;
5295;SDS011;2670;42.720;23.336;2023-05-09T11:05:42;2.93;;;2.03;;
5295;SDS011;2670;42.720;23.336;2023-05-09T11:08:21;2.87;;;2.03;;
5295;SDS011;2670;42.720;23.336;2023-05-09T11:10:50;3.40;;;2.00;;
5295;SDS011;2670;42.720;23.336;2023-05-09T11:13:17;2.33;;;2.00;;
5295;SDS011;2670;42.720;23.336;2023-05-09T11:16:07;3.00;;;2.70;;
5295;SDS011;2670;42.720;23.336;2023-05-09T11:18:48;9.37;;;2.80;;
5295;SDS011;2670;42.720;23.336;2023-05-09T11:21:16;5.83;;;2.53;;
5295;SDS011;2670;42.720;23.336;2023-05-09T11:23:44;2.93;;;2.57;;
5295;SDS011;2670;42.720;23.336;2023-05-09T11:26:13;4.70;;;3.20;;
5295;SDS011;2670;42.720;23.336;2023-05-09T11:28:40;4.33;;;2.20;;
5295;SDS011;2670;42.720;23.336;2023-05-09T11:31:07;3.87;;;2.80;;
5295;SDS011;2670;42.720;23.336;2023-05-09T11:33:37;3.80;;;2.53;;
5295;SDS011;2670;42.720;23.336;2023-05-09T11:36:14;4.07;;;3.13;;
5295;SDS011;2670;42.720;23.336;2023-05-09T11:38:42;4.10;;;2.53;;
5295;SDS011;2670;42.720;23.336;2023-05-09T11:41:10;2.73;;;2.47;;
5295;SDS011;2670;42.720;23.336;2023-05-09T11:43:37;2.77;;;2.57;;
5295;SDS011;2670;42.720;23.336;2023-05-09T11:46:05;2.87;;;2.57;;
5295;SDS011;2670;42.720;23.336;2023-05-09T11:48:37;4.20;;;2.97;;
5295;SDS011;2670;42.720;23.336;2023-05-09T11:51:04;5.93;;;2.77;;
5295;SDS011;2670;42.720;23.336;2023-05-09T11:53:31;3.37;;;3.07;;
5295;SDS011;2670;42.720;23.336;2023-05-09T11:56:00;5.80;;;3.40;;
5295;SDS011;2670;42.720;23.336;2023-05-09T11:58:29;6.90;;;2.63;;
5295;SDS011;2670;42.720;23.336;2023-05-09T12:00:56;6.63;;;2.00;;
5295;SDS011;2670;42.720;23.336;2023-05-09T12:03:23;4.50;;;2.70;;
5295;SDS011;2670;42.720;23.336;2023-05-09T12:05:51;2.60;;;2.40;;
5295;SDS011;2670;42.720;23.336;2023-05-09T12:08:19;6.73;;;2.77;;
5295;SDS011;2670;42.720;23.336;2023-05-09T12:10:47;3.03;;;2.70;;
5295;SDS011;2670;42.720;23.336;2023-05-09T12:13:13;3.83;;;3.07;;
5295;SDS011;2670;42.720;23.336;2023-05-09T12:15:40;4.37;;;2.60;;
5295;SDS011;2670;42.720;23.336;2023-05-09T12:18:10;4.17;;;3.10;;
5295;SDS011;2670;42.720;23.336;2023-05-09T12:20:43;7.93;;;2.90;;
5295;SDS011;2670;42.720;23.336;2023-05-09T12:23:15;3.87;;;3.13;;
5295;SDS011;2670;42.720;23.336;2023-05-09T12:25:46;5.60;;;2.60;;
5295;SDS011;2670;42.720;23.336;2023-05-09T12:28:13;3.50;;;3.00;;
5295;SDS011;2670;42.720;23.336;2023-05-09T12:30:40;3.47;;;2.80;;
5295;SDS011;2670;42.720;23.336;2023-05-09T12:33:07;3.70;;;2.40;;
5295;SDS011;2670;42.720;23.336;2023-05-09T12:35:36;7.80;;;2.87;;
5295;SDS011;2670;42.720;23.336;2023-05-09T12:38:03;4.23;;;3.03;;
5295;SDS011;2670;42.720;23.336;2023-05-09T12:40:31;7.47;;;3.20;;
5295;SDS011;2670;42.720;23.336;2023-05-09T12:42:58;3.03;;;2.63;;
5295;SDS011;2670;42.720;23.336;2023-05-09T12:45:27;4.83;;;3.10;;
5295;SDS011;2670;42.720;23.336;2023-05-09T12:47:55;4.53;;;3.17;;
5295;SDS011;2670;42.720;23.336;2023-05-09T12:50:29;4.07;;;3.67;;
5295;SDS011;2670;42.720;23.336;2023-05-09T12:52:59;3.80;;;2.80;;
5295;SDS011;2670;42.720;23.336;2023-05-09T12:55:27;4.20;;;2.73;;
5295;SDS011;2670;42.720;23.336;2023-05-09T12:57:59;4.50;;;2.90;;
5295;SDS011;2670;42.720;23.336;2023-05-09T13:00:27;3.63;;;2.40;;
5295;SDS011;2670;42.720;23.336;2023-05-09T13:02:54;5.83;;;3.30;;
5295;SDS011;2670;42.720;23.336;2023-05-09T13:05:21;3.77;;;3.20;;
5295;SDS011;2670;42.720;23.336;2023-05-09T13:07:49;4.60;;;2.97;;
5295;SDS011;2670;42.720;23.336;2023-05-09T13:10:18;4.37;;;3.40;;
5295;SDS011;2670;42.720;23.336;2023-05-09T13:12:46;2.67;;;2.27;;
5295;SDS011;2670;42.720;23.336;2023-05-09T13:15:15;4.40;;;3.33;;
5295;SDS011;2670;42.720;23.336;2023-05-09T13:17:44;3.37;;;3.07;;
5295;SDS011;2670;42.720;23.336;2023-05-09T13:20:11;4.87;;;3.33;;
5295;SDS011;2670;42.720;23.336;2023-05-09T13:22:38;5.67;;;3.30;;
5295;SDS011;2670;42.720;23.336;2023-05-09T13:25:05;13.63;;;4.63;;
5295;SDS011;2670;42.720;23.336;2023-05-09T13:27:32;5.70;;;3.63;;
5295;SDS011;2670;42.720;23.336;2023-05-09T13:29:59;7.07;;;4.07;;
5295;SDS011;2670;42.720;23.336;2023-05-09T13:32:28;7.90;;;4.20;;
5295;SDS011;2670;42.720;23.336;2023-05-09T13:34:55;5.33;;;2.97;;
5295;SDS011;2670;42.720;23.336;2023-05-09T13:37:22;4.97;;;3.57;;
5295;SDS011;2670;42.720;23.336;2023-05-09T13:39:48;4.00;;;2.97;;
5295;SDS011;2670;42.720;23.336;2023-05-09T13:42:15;3.00;;;2.57;;
5295;SDS011;2670;42.720;23.336;2023-05-09T13:44:42;4.77;;;2.90;;
5295;SDS011;2670;42.720;23.336;2023-05-09T13:47:08;5.37;;;2.87;;
5295;SDS011;2670;42.720;23.336;2023-05-09T13:49:37;3.30;;;2.73;;
5295;SDS011;2670;42.720;23.336;2023-05-09T13:52:03;2.30;;;2.00;;
5295;SDS011;2670;42.720;23.336;2023-05-09T13:54:30;4.27;;;2.30;;
5295;SDS011;2670;42.720;23.336;2023-05-09T13:56:59;5.63;;;2.23;;
5295;SDS011;2670;42.720;23.336;2023-05-09T13:59:27;3.47;;;2.07;;
5295;SDS011;2670;42.720;23.336;2023-05-09T14:01:54;4.87;;;2.80;;
5295;SDS011;2670;42.720;23.336;2023-05-09T14:04:22;2.53;;;1.70;;
5295;SDS011;2670;42.720;23.336;2023-05-09T14:06:51;8.80;;;2.07;;
5295;SDS011;2670;42.720;23.336;2023-05-09T14:09:17;3.70;;;2.47;;
5295;SDS011;2670;42.720;23.336;2023-05-09T14:11:46;6.00;;;3.67;;
5295;SDS011;2670;42.720;23.336;2023-05-09T14:14:14;10.40;;;5.57;;
5295;SDS011;2670;42.720;23.336;2023-05-09T14:16:41;12.47;;;7.10;;
5295;SDS011;2670;42.720;23.336;2023-05-09T14:19:08;6.50;;;4.40;;
5295;SDS011;2670;42.720;23.336;2023-05-09T14:21:35;5.90;;;4.60;;
5295;SDS011;2670;42.720;23.336;2023-05-09T14:24:03;7.50;;;4.27;;
5295;SDS011;2670;42.720;23.336;2023-05-09T14:26:31;8.43;;;4.30;;
5295;SDS011;2670;42.720;23.336;2023-05-09T14:28:57;3.07;;;2.60;;
5295;SDS011;2670;42.720;23.336;2023-05-09T14:31:24;3.10;;;2.57;;
5295;SDS011;2670;42.720;23.336;2023-05-09T14:33:51;5.40;;;2.23;;
5295;SDS011;2670;42.720;23.336;2023-05-09T14:36:17;3.00;;;1.93;;
5295;SDS011;2670;42.720;23.336;2023-05-09T14:38:44;10.30;;;3.77;;
5295;SDS011;2670;42.720;23.336;2023-05-09T14:41:12;10.50;;;5.57;;
5295;SDS011;2670;42.720;23.336;2023-05-09T14:43:40;7.70;;;4.20;;
5295;SDS011;2670;42.720;23.336;2023-05-09T14:46:06;11.90;;;7.40;;
5295;SDS011;2670;42.720;23.336;2023-05-09T14:48:33;9.63;;;6.70;;
5295;SDS011;2670;42.720;23.336;2023-05-09T14:51:00;3.43;;;2.60;;
5295;SDS011;2670;42.720;23.336;2023-05-09T14:53:26;1.83;;;1.63;;
5295;SDS011;2670;42.720;23.336;2023-05-09T14:55:54;3.80;;;2.77;;
5295;SDS011;2670;42.720;23.336;2023-05-09T14:58:22;5.73;;;3.03;;
5295;SDS011;2670;42.720;23.336;2023-05-09T15:00:49;2.77;;;2.10;;
5295;SDS011;2670;42.720;23.336;2023-05-09T15:03:16;3.83;;;2.10;;
5295;SDS011;2670;42.720;23.336;2023-05-09T15:05:43;3.07;;;2.20;;
5295;SDS011;2670;42.720;23.336;2023-05-09T15:08:10;4.50;;;2.07;;
5295;SDS011;2670;42.720;23.336;2023-05-09T15:10:36;2.10;;;1.80;;